sensor_id;sensor_type;location;lat;lon;timestamp;temperature;humidity
41987;DHT22;28361;50.740;7.084;2022-09-30T08:13:51;10.10;99.90
41987;DHT22;28361;50.740;7.084;2022-09-30T08:16:18;13.30;99.90
41987;DHT22;28361;50.740;7.084;2022-09-30T08:18:43;13.60;99.90
41987;DHT22;28361;50.740;7.084;2022-09-30T08:21:09;13.50;99.90
41987;DHT22;28361;50.740;7.084;2022-09-30T08:23:35;13.50;99.90
41987;DHT22;28361;50.740;7.084;2022-09-30T08:26:03;13.70;98.90
41987;DHT22;28361;50.740;7.084;2022-09-30T08:28:34;14.00;96.80
41987;DHT22;28361;50.740;7.084;2022-09-30T08:33:40;14.20;93.20
41987;DHT22;28361;50.740;7.084;2022-09-30T08:36:12;13.20;91.20
41987;DHT22;28361;50.740;7.084;2022-09-30T08:38:38;13.30;94.40
41987;DHT22;28361;50.740;7.084;2022-09-30T08:41:16;13.60;91.30
41987;DHT22;28361;50.740;7.084;2022-09-30T08:46:47;14.30;58.40
41987;DHT22;28361;50.740;7.084;2022-09-30T08:49:31;14.10;63.20
41987;DHT22;28361;50.740;7.084;2022-09-30T08:52:04;14.30;53.90
41987;DHT22;28361;50.740;7.084;2022-09-30T08:54:45;14.40;53.30
41987;DHT22;28361;50.740;7.084;2022-09-30T08:57:12;14.50;49.00
41987;DHT22;28361;50.740;7.084;2022-09-30T08:59:43;14.60;44.00
41987;DHT22;28361;50.740;7.084;2022-09-30T09:04:42;15.40;37.20
41987;DHT22;28361;50.740;7.084;2022-09-30T09:07:18;15.50;18.30
41987;DHT22;28361;50.740;7.084;2022-09-30T09:12:55;15.70;13.50
41987;DHT22;28361;50.740;7.084;2022-09-30T09:24:01;16.60;1.00
41987;DHT22;28361;50.740;7.084;2022-09-30T09:26:34;16.70;1.00
41987;DHT22;28361;50.740;7.084;2022-09-30T09:31:54;16.40;1.00
41987;DHT22;28361;50.740;7.084;2022-09-30T09:34:23;16.50;1.00
41987;DHT22;28361;50.740;7.084;2022-09-30T09:37:07;16.70;1.00
41987;DHT22;28361;50.740;7.084;2022-09-30T09:39:58;16.90;1.00
41987;DHT22;28361;50.740;7.084;2022-09-30T09:45:23;17.40;1.00
41987;DHT22;28361;50.740;7.084;2022-09-30T09:47:51;17.60;1.00
41987;DHT22;28361;50.740;7.084;2022-09-30T09:50:25;18.20;1.00
41987;DHT22;28361;50.740;7.084;2022-09-30T09:55:38;18.50;1.00
41987;DHT22;28361;50.740;7.084;2022-09-30T09:58:09;18.70;1.00
41987;DHT22;28361;50.740;7.084;2022-09-30T10:00:36;19.10;1.00
41987;DHT22;28361;50.740;7.084;2022-09-30T10:03:18;19.30;1.00
41987;DHT22;28361;50.740;7.084;2022-09-30T10:06:07;19.50;1.00
41987;DHT22;28361;50.740;7.084;2022-09-30T10:08:39;20.00;1.00
41987;DHT22;28361;50.740;7.084;2022-09-30T10:11:20;20.20;1.00
41987;DHT22;28361;50.740;7.084;2022-09-30T10:13:47;20.40;1.00
41987;DHT22;28361;50.740;7.084;2022-09-30T10:16:35;20.20;1.00
41987;DHT22;28361;50.740;7.084;2022-09-30T10:19:19;19.50;1.00
41987;DHT22;28361;50.740;7.084;2022-09-30T10:21:46;18.80;1.00
41987;DHT22;28361;50.740;7.084;2022-09-30T10:24:30;19.30;1.00
41987;DHT22;28361;50.740;7.084;2022-09-30T10:26:57;19.60;1.00
41987;DHT22;28361;50.740;7.084;2022-09-30T10:29:31;19.80;1.00
41987;DHT22;28361;50.740;7.084;2022-09-30T10:31:59;20.30;1.00
41987;DHT22;28361;50.740;7.084;2022-09-30T10:34:37;20.60;1.00
41987;DHT22;28361;50.740;7.084;2022-09-30T10:37:24;20.70;1.00
41987;DHT22;28361;50.740;7.084;2022-09-30T10:40:02;20.40;1.00
41987;DHT22;28361;50.740;7.084;2022-09-30T10:42:32;20.40;1.00
41987;DHT22;28361;50.740;7.084;2022-09-30T10:47:52;21.00;1.00
41987;DHT22;28361;50.740;7.084;2022-09-30T10:50:21;21.40;1.00
41987;DHT22;28361;50.740;7.084;2022-09-30T10:53:00;21.90;1.00
41987;DHT22;28361;50.740;7.084;2022-09-30T10:55:42;22.30;1.00
41987;DHT22;28361;50.740;7.084;2022-09-30T10:58:33;22.50;1.00
41987;DHT22;28361;50.740;7.084;2022-09-30T11:11:56;22.70;1.00
41987;DHT22;28361;50.740;7.084;2022-09-30T17:03:56;20.20;1.00
41987;DHT22;28361;50.740;7.084;2022-09-30T17:06:27;16.30;1.00
41987;DHT22;28361;50.740;7.084;2022-09-30T17:08:53;16.20;1.00
41987;DHT22;28361;50.740;7.084;2022-09-30T17:11:23;16.00;1.00
41987;DHT22;28361;50.740;7.084;2022-09-30T17:13:58;15.90;1.00
41987;DHT22;28361;50.740;7.084;2022-09-30T17:16:24;15.80;1.00
41987;DHT22;28361;50.740;7.084;2022-09-30T17:18:50;15.70;1.00
41987;DHT22;28361;50.740;7.084;2022-09-30T17:21:21;15.60;1.00
41987;DHT22;28361;50.740;7.084;2022-09-30T17:23:47;15.60;1.00
41987;DHT22;28361;50.740;7.084;2022-09-30T17:26:13;15.40;1.00
41987;DHT22;28361;50.740;7.084;2022-09-30T17:28:39;15.40;1.00
41987;DHT22;28361;50.740;7.084;2022-09-30T17:31:06;15.30;1.00
41987;DHT22;28361;50.740;7.084;2022-09-30T17:33:35;15.20;1.00
41987;DHT22;28361;50.740;7.084;2022-09-30T17:36:03;15.20;1.00
41987;DHT22;28361;50.740;7.084;2022-09-30T17:38:31;15.10;1.00
41987;DHT22;28361;50.740;7.084;2022-09-30T17:40:57;15.00;1.00
41987;DHT22;28361;50.740;7.084;2022-09-30T17:43:41;15.00;1.00
41987;DHT22;28361;50.740;7.084;2022-09-30T17:46:08;14.90;1.00
41987;DHT22;28361;50.740;7.084;2022-09-30T17:48:33;14.90;1.00
41987;DHT22;28361;50.740;7.084;2022-09-30T17:50:59;14.80;1.00
41987;DHT22;28361;50.740;7.084;2022-09-30T17:53:25;14.80;1.00
41987;DHT22;28361;50.740;7.084;2022-09-30T17:56:01;14.70;1.00
41987;DHT22;28361;50.740;7.084;2022-09-30T17:58:27;14.60;1.00
41987;DHT22;28361;50.740;7.084;2022-09-30T18:00:53;14.60;1.00
41987;DHT22;28361;50.740;7.084;2022-09-30T18:03:22;14.50;1.00
41987;DHT22;28361;50.740;7.084;2022-09-30T18:05:47;14.50;1.00
41987;DHT22;28361;50.740;7.084;2022-09-30T18:08:13;14.40;1.00
41987;DHT22;28361;50.740;7.084;2022-09-30T18:10:39;14.30;1.00
41987;DHT22;28361;50.740;7.084;2022-09-30T18:13:05;14.30;1.00
41987;DHT22;28361;50.740;7.084;2022-09-30T18:15:31;14.20;1.00
41987;DHT22;28361;50.740;7.084;2022-09-30T18:17:57;14.20;1.00
41987;DHT22;28361;50.740;7.084;2022-09-30T18:20:23;14.10;1.00
41987;DHT22;28361;50.740;7.084;2022-09-30T18:22:49;14.10;1.00
41987;DHT22;28361;50.740;7.084;2022-09-30T18:25:14;14.00;1.00
41987;DHT22;28361;50.740;7.084;2022-09-30T18:27:50;14.00;1.00
41987;DHT22;28361;50.740;7.084;2022-09-30T18:30:16;14.00;1.00
41987;DHT22;28361;50.740;7.084;2022-09-30T18:32:49;13.90;1.00
41987;DHT22;28361;50.740;7.084;2022-09-30T18:35:16;13.90;1.00
41987;DHT22;28361;50.740;7.084;2022-09-30T18:37:47;13.80;1.00
41987;DHT22;28361;50.740;7.084;2022-09-30T18:40:18;13.90;1.00
41987;DHT22;28361;50.740;7.084;2022-09-30T18:42:44;13.80;1.00
41987;DHT22;28361;50.740;7.084;2022-09-30T18:45:11;13.80;1.00
41987;DHT22;28361;50.740;7.084;2022-09-30T18:47:41;13.70;1.00
41987;DHT22;28361;50.740;7.084;2022-09-30T18:55:00;13.70;1.00
41987;DHT22;28361;50.740;7.084;2022-09-30T18:57:26;13.60;1.00
41987;DHT22;28361;50.740;7.084;2022-09-30T18:59:52;13.50;1.00
